createdAt,value
2018-11-06T00:01:55.089Z,22.93
2018-11-06T00:04:28.685Z,22.07
2018-11-06T00:06:57.025Z,21.13
2018-11-06T00:09:25.376Z,21.33
2018-11-06T00:11:53.670Z,23.33
2018-11-06T00:14:21.994Z,24.27
2018-11-06T00:16:50.324Z,21.87
2018-11-06T00:19:18.838Z,21.30
2018-11-06T00:21:47.156Z,22.53
2018-11-06T00:24:15.456Z,22.00
2018-11-06T00:26:43.786Z,21.53
2018-11-06T00:29:12.101Z,20.97
2018-11-06T00:31:40.424Z,21.57
2018-11-06T00:34:08.793Z,26.57
2018-11-06T00:36:37.097Z,24.37
2018-11-06T00:39:07.020Z,23.13
2018-11-06T00:41:35.382Z,22.53
2018-11-06T00:44:03.745Z,22.17
2018-11-06T00:46:32.074Z,24.90
2018-11-06T00:49:00.400Z,26.10
2018-11-06T00:51:28.737Z,35.17
2018-11-06T00:53:57.064Z,29.53
2018-11-06T00:56:25.389Z,32.80
2018-11-06T00:58:53.701Z,33.03
2018-11-06T01:01:22.038Z,31.10
2018-11-06T01:03:55.828Z,28.73
2018-11-06T01:06:24.284Z,25.53
2018-11-06T01:08:52.597Z,24.13
2018-11-06T01:11:20.926Z,23.13
2018-11-06T01:13:49.235Z,21.03
2018-11-06T01:16:17.561Z,22.43
2018-11-06T01:18:45.859Z,25.23
2018-11-06T01:21:14.186Z,23.27
2018-11-06T01:23:42.480Z,21.37
2018-11-06T01:26:10.804Z,23.10
2018-11-06T01:28:39.107Z,26.80
2018-11-06T01:31:07.422Z,25.33
2018-11-06T01:33:35.733Z,24.23
2018-11-06T01:36:04.067Z,24.73
2018-11-06T01:38:32.372Z,23.23
2018-11-06T01:41:00.697Z,27.30
2018-11-06T01:43:29.002Z,26.27
2018-11-06T01:45:57.334Z,25.97
2018-11-06T01:48:25.669Z,24.87
2018-11-06T01:50:53.993Z,25.63
2018-11-06T01:53:22.301Z,23.67
2018-11-06T01:55:50.629Z,23.53
2018-11-06T01:58:18.945Z,24.37
2018-11-06T02:00:47.268Z,22.87
2018-11-06T02:03:15.572Z,22.73
2018-11-06T02:05:43.897Z,24.50
2018-11-06T02:08:12.200Z,23.00
2018-11-06T02:10:40.524Z,25.63
2018-11-06T02:13:08.828Z,22.37
2018-11-06T02:15:37.165Z,23.73
2018-11-06T02:18:05.818Z,22.97
2018-11-06T02:20:34.120Z,21.13
2018-11-06T02:23:02.444Z,21.93
2018-11-06T02:25:30.745Z,21.73
2018-11-06T02:27:59.074Z,21.83
2018-11-06T02:30:27.401Z,20.97
2018-11-06T02:32:55.728Z,22.27
2018-11-06T02:35:24.034Z,23.67
2018-11-06T02:37:52.373Z,22.63
2018-11-06T02:40:20.688Z,22.83
2018-11-06T02:42:49.026Z,23.87
2018-11-06T02:45:17.345Z,22.07
2018-11-06T02:47:45.692Z,20.33
2018-11-06T02:50:14.720Z,19.33
2018-11-06T02:52:43.625Z,19.70
2018-11-06T02:55:12.405Z,18.87
2018-11-06T02:57:41.104Z,18.97
2018-11-06T03:00:12.009Z,19.37
2018-11-06T03:02:40.339Z,19.50
2018-11-06T03:05:09.501Z,19.33
2018-11-06T03:07:37.824Z,20.83
2018-11-06T03:10:06.727Z,19.20
2018-11-06T03:12:35.032Z,20.43
2018-11-06T03:15:03.328Z,20.10
2018-11-06T03:17:31.656Z,21.70
2018-11-06T03:19:59.965Z,20.67
2018-11-06T03:22:28.293Z,20.47
2018-11-06T03:24:56.593Z,19.93
2018-11-06T03:27:24.937Z,20.10
2018-11-06T03:29:53.261Z,20.20
2018-11-06T03:32:21.577Z,20.27
2018-11-06T03:34:49.869Z,20.20
2018-11-06T03:37:18.189Z,20.70
2018-11-06T03:39:46.584Z,22.60
2018-11-06T03:42:14.917Z,25.97
2018-11-06T03:44:43.240Z,25.90
2018-11-06T03:47:11.569Z,23.73
2018-11-06T03:49:39.875Z,23.97
2018-11-06T03:52:08.204Z,23.43
2018-11-06T03:54:36.645Z,25.40
2018-11-06T03:57:05.045Z,22.83
2018-11-06T03:59:33.368Z,24.70
2018-11-06T04:02:01.707Z,24.90
2018-11-06T04:04:30.013Z,23.40
2018-11-06T04:06:58.333Z,23.40
2018-11-06T04:09:26.641Z,25.07
2018-11-06T04:11:54.961Z,23.90
2018-11-06T04:14:23.280Z,20.13
2018-11-06T04:16:51.578Z,23.73
2018-11-06T04:19:19.917Z,23.73
2018-11-06T04:21:48.215Z,27.57
2018-11-06T04:24:16.538Z,28.13
2018-11-06T04:26:44.842Z,25.50
2018-11-06T04:29:13.161Z,27.93
2018-11-06T04:31:41.453Z,26.00
2018-11-06T04:34:10.103Z,27.40
2018-11-06T04:36:38.411Z,33.03
2018-11-06T04:39:08.299Z,34.93
2018-11-06T04:41:36.625Z,34.40
2018-11-06T04:44:05.714Z,38.67
2018-11-06T04:46:34.169Z,33.47
2018-11-06T04:49:02.502Z,33.60
2018-11-06T04:51:30.805Z,25.23
2018-11-06T04:54:01.023Z,27.10
2018-11-06T04:56:30.093Z,29.10
2018-11-06T04:58:58.481Z,26.70
2018-11-06T05:01:26.953Z,28.10
2018-11-06T05:03:55.276Z,27.40
2018-11-06T05:06:23.592Z,25.43
2018-11-06T05:08:51.907Z,24.00
2018-11-06T05:11:20.221Z,23.43
2018-11-06T05:13:48.595Z,23.33
2018-11-06T05:16:16.884Z,20.50
2018-11-06T05:18:45.211Z,19.20
2018-11-06T05:21:13.550Z,20.77
2018-11-06T05:23:41.878Z,20.93
2018-11-06T05:26:10.181Z,28.17
2018-11-06T05:28:38.503Z,32.33
2018-11-06T05:31:06.816Z,38.77
2018-11-06T05:33:35.142Z,40.83
2018-11-06T05:36:03.461Z,42.40
2018-11-06T05:38:31.782Z,38.03
2018-11-06T05:41:03.465Z,45.97
2018-11-06T05:43:31.792Z,49.23
2018-11-06T05:46:00.111Z,40.73
2018-11-06T05:48:28.445Z,43.53
2018-11-06T05:50:56.755Z,41.20
2018-11-06T05:53:25.078Z,42.17
2018-11-06T05:55:53.412Z,43.60
2018-11-06T05:58:21.828Z,45.80
2018-11-06T06:00:50.168Z,45.50
2018-11-06T06:03:18.509Z,40.77
2018-11-06T06:05:46.831Z,39.80
2018-11-06T06:08:15.133Z,44.70
2018-11-06T06:10:43.459Z,45.80
2018-11-06T06:13:11.782Z,55.23
2018-11-06T06:15:40.124Z,43.20
2018-11-06T06:18:08.441Z,42.67
2018-11-06T06:20:36.769Z,41.33
2018-11-06T06:23:05.217Z,40.63
2018-11-06T06:25:33.537Z,39.20
2018-11-06T06:28:01.846Z,36.17
2018-11-06T06:30:30.169Z,34.27
2018-11-06T06:32:58.464Z,35.30
2018-11-06T06:35:26.781Z,34.13
2018-11-06T06:37:55.089Z,36.77
2018-11-06T06:40:23.418Z,36.37
2018-11-06T06:42:51.730Z,39.03
2018-11-06T06:45:20.285Z,36.57
2018-11-06T06:47:48.596Z,36.13
2018-11-06T06:50:18.178Z,34.03
2018-11-06T06:52:47.045Z,34.70
2018-11-06T06:55:16.017Z,36.47
2018-11-06T06:57:45.349Z,39.00
2018-11-06T07:00:17.324Z,37.07
2018-11-06T07:02:45.785Z,35.70
2018-11-06T07:05:15.501Z,34.93
2018-11-06T07:07:44.173Z,33.90
2018-11-06T07:10:14.612Z,35.30
2018-11-06T07:12:44.011Z,34.07
2018-11-06T07:15:13.657Z,32.23
2018-11-06T07:17:42.506Z,32.50
2018-11-06T07:20:18.997Z,27.60
2018-11-06T07:22:47.318Z,25.63
2018-11-06T07:25:15.842Z,26.20
2018-11-06T07:27:45.333Z,25.23
2018-11-06T07:30:15.670Z,24.90
2018-11-06T07:32:44.541Z,25.83
2018-11-06T07:35:13.635Z,24.93
2018-11-06T07:37:42.219Z,23.90
2018-11-06T07:40:18.255Z,27.43
2018-11-06T07:42:46.550Z,33.03
2018-11-06T07:45:17.199Z,36.47
2018-11-06T07:47:45.534Z,35.90
2018-11-06T07:50:14.399Z,35.67
2018-11-06T07:52:42.932Z,33.17
2018-11-06T07:55:12.868Z,32.47
2018-11-06T07:57:41.324Z,31.10
2018-11-06T08:00:15.355Z,32.57
2018-11-06T08:02:44.632Z,33.43
2018-11-06T08:05:13.145Z,29.97
2018-11-06T08:07:41.605Z,34.53
2018-11-06T08:10:10.708Z,30.60
2018-11-06T08:12:40.184Z,33.13
2018-11-06T08:15:08.987Z,30.33
2018-11-06T08:17:37.364Z,30.87
2018-11-06T08:20:06.245Z,24.57
2018-11-06T08:22:35.461Z,23.37
2018-11-06T08:25:03.816Z,23.07
2018-11-06T08:27:32.192Z,21.13
2018-11-06T08:30:00.514Z,20.97
2018-11-06T08:32:29.392Z,21.03
2018-11-06T08:34:57.304Z,19.57
2018-11-06T08:37:25.633Z,18.80
2018-11-06T08:39:53.962Z,18.00
2018-11-06T08:42:22.311Z,18.37
2018-11-06T08:44:50.606Z,17.80
2018-11-06T08:47:18.927Z,18.50
2018-11-06T08:49:47.224Z,16.70
2018-11-06T08:52:15.549Z,17.50
2018-11-06T08:54:43.914Z,17.53
2018-11-06T08:57:12.205Z,17.10
2018-11-06T08:59:40.509Z,17.03
2018-11-06T09:02:08.833Z,17.37
2018-11-06T09:04:37.133Z,17.10
2018-11-06T09:07:05.701Z,16.47
2018-11-06T09:09:34.009Z,17.37
2018-11-06T09:12:02.385Z,16.87
2018-11-06T09:14:30.686Z,16.37
2018-11-06T09:16:59.042Z,17.20
2018-11-06T09:19:27.433Z,17.40
2018-11-06T09:21:55.761Z,17.27
2018-11-06T09:24:24.060Z,16.93
2018-11-06T09:26:52.411Z,18.40
2018-11-06T09:29:20.701Z,17.90
2018-11-06T09:31:49.022Z,17.63
2018-11-06T09:34:17.316Z,17.17
2018-11-06T09:36:45.658Z,15.90
2018-11-06T09:39:13.977Z,16.47
2018-11-06T09:41:42.444Z,16.47
2018-11-06T09:44:10.770Z,17.13
2018-11-06T09:46:39.108Z,15.53
2018-11-06T09:49:07.969Z,16.40
2018-11-06T09:51:36.573Z,15.10
2018-11-06T09:54:05.688Z,16.07
2018-11-06T09:56:34.010Z,16.60
2018-11-06T09:59:02.514Z,17.50
2018-11-06T10:01:31.113Z,17.80
2018-11-06T10:03:59.417Z,15.97
2018-11-06T10:06:27.928Z,16.53
2018-11-06T10:08:56.154Z,15.70
2018-11-06T10:11:24.504Z,17.00
2018-11-06T10:13:52.817Z,17.93
2018-11-06T10:16:21.148Z,16.67
2018-11-06T10:18:49.452Z,17.10
2018-11-06T10:21:17.824Z,16.73
2018-11-06T10:23:46.119Z,15.70
2018-11-06T10:26:14.453Z,16.10
2018-11-06T10:28:42.756Z,16.40
2018-11-06T10:31:11.084Z,16.17
2018-11-06T10:33:39.385Z,16.17
2018-11-06T10:36:07.710Z,16.47
2018-11-06T10:38:36.017Z,17.13
2018-11-06T10:41:04.344Z,16.77
2018-11-06T10:43:32.661Z,15.70
2018-11-06T10:46:00.977Z,15.73
2018-11-06T10:48:29.301Z,13.60
2018-11-06T10:50:57.605Z,12.83
2018-11-06T10:53:25.932Z,10.10
2018-11-06T10:55:54.237Z,11.70
2018-11-06T10:58:22.573Z,9.53
2018-11-06T11:00:56.391Z,12.53
2018-11-06T11:03:32.875Z,12.67
2018-11-06T11:06:01.532Z,11.07
2018-11-06T11:08:29.856Z,13.20
2018-11-06T11:10:58.490Z,13.87
2018-11-06T11:13:26.914Z,10.00
2018-11-06T11:15:55.197Z,10.70
2018-11-06T11:18:23.549Z,12.07
2018-11-06T11:20:51.868Z,15.33
2018-11-06T11:23:20.234Z,12.93
2018-11-06T11:25:48.631Z,15.20
2018-11-06T11:28:16.889Z,14.03
2018-11-06T11:30:45.206Z,15.23
2018-11-06T11:33:13.533Z,14.67
2018-11-06T11:35:41.828Z,15.13
2018-11-06T11:38:10.154Z,16.17
2018-11-06T11:40:38.465Z,16.20
2018-11-06T11:43:06.795Z,16.10
2018-11-06T11:45:35.154Z,17.93
2018-11-06T11:48:03.469Z,15.93
2018-11-06T11:50:31.786Z,15.67
2018-11-06T11:53:00.104Z,15.80
2018-11-06T11:55:28.422Z,16.30
2018-11-06T11:57:56.768Z,17.10
2018-11-06T12:00:27.699Z,17.10
2018-11-06T12:02:56.396Z,17.47
2018-11-06T12:05:24.833Z,16.60
2018-11-06T12:07:53.175Z,17.53
2018-11-06T12:10:21.517Z,16.60
2018-11-06T12:12:49.836Z,17.90
2018-11-06T12:15:18.465Z,17.70
2018-11-06T12:17:47.376Z,16.80
2018-11-06T12:20:16.162Z,16.60
2018-11-06T12:22:44.500Z,17.57
2018-11-06T12:25:13.357Z,16.73
2018-11-06T12:27:41.548Z,17.93
2018-11-06T12:30:11.865Z,18.67
2018-11-06T12:32:40.777Z,20.93
2018-11-06T12:35:09.892Z,18.10
2018-11-06T12:37:38.493Z,16.97
2018-11-06T12:40:07.986Z,18.80
2018-11-06T12:42:36.798Z,17.27
2018-11-06T12:45:06.436Z,14.97
2018-11-06T12:47:34.750Z,15.60
2018-11-06T12:50:03.119Z,16.37
2018-11-06T12:52:31.400Z,16.00
2018-11-06T12:54:59.776Z,15.57
2018-11-06T12:57:28.096Z,15.50
2018-11-06T12:59:56.428Z,16.33
2018-11-06T13:02:24.749Z,15.73
2018-11-06T13:04:53.044Z,16.60
2018-11-06T13:07:21.379Z,15.97
2018-11-06T13:09:49.763Z,16.50
2018-11-06T13:12:18.031Z,16.13
2018-11-06T13:14:46.369Z,16.60
2018-11-06T13:17:14.804Z,15.90
2018-11-06T13:19:43.019Z,15.17
2018-11-06T13:22:11.338Z,16.30
2018-11-06T13:24:39.644Z,16.07
2018-11-06T13:27:07.966Z,15.37
2018-11-06T13:29:36.281Z,15.67
2018-11-06T13:32:04.637Z,16.47
2018-11-06T13:34:32.945Z,16.40
2018-11-06T13:37:01.298Z,17.00
2018-11-06T13:39:29.615Z,16.17
2018-11-06T13:41:57.984Z,15.53
2018-11-06T13:44:26.695Z,14.80
2018-11-06T13:46:54.649Z,16.43
2018-11-06T13:49:22.952Z,17.07
2018-11-06T13:51:51.281Z,16.83
2018-11-06T13:54:19.628Z,16.87
2018-11-06T13:56:47.925Z,17.97
2018-11-06T13:59:16.320Z,16.87
2018-11-06T14:01:44.648Z,16.97
2018-11-06T14:04:12.967Z,16.80
2018-11-06T14:06:41.297Z,16.77
2018-11-06T14:09:10.730Z,17.30
2018-11-06T14:11:39.124Z,17.10
2018-11-06T14:14:07.884Z,17.10
2018-11-06T14:16:36.488Z,17.63
2018-11-06T14:19:04.888Z,18.27
2018-11-06T14:21:33.194Z,18.23
2018-11-06T14:24:01.545Z,17.97
2018-11-06T14:26:29.848Z,16.53
2018-11-06T14:28:58.171Z,17.13
2018-11-06T14:31:26.648Z,18.60
2018-11-06T14:33:54.990Z,19.00
2018-11-06T14:36:23.299Z,19.63
2018-11-06T14:38:51.660Z,20.20
2018-11-06T14:41:19.978Z,18.57
2018-11-06T14:43:48.310Z,18.10
2018-11-06T14:46:16.635Z,18.30
2018-11-06T14:48:45.151Z,18.63
2018-11-06T14:51:13.328Z,19.10
2018-11-06T14:53:41.656Z,17.50
2018-11-06T14:56:10.094Z,16.70
2018-11-06T14:58:38.301Z,17.03
2018-11-06T15:01:06.616Z,16.80
2018-11-06T15:03:34.945Z,16.83
2018-11-06T15:06:03.250Z,16.23
2018-11-06T15:08:31.564Z,16.47
2018-11-06T15:10:59.861Z,16.80
2018-11-06T15:13:28.198Z,18.70
2018-11-06T15:15:56.503Z,18.43
2018-11-06T15:18:24.829Z,19.30
2018-11-06T15:20:53.141Z,19.17
2018-11-06T15:23:21.457Z,18.90
2018-11-06T15:25:49.778Z,20.33
2018-11-06T15:28:18.217Z,18.63
2018-11-06T15:30:46.532Z,19.83
2018-11-06T15:33:14.856Z,20.33
2018-11-06T15:35:43.179Z,21.30
2018-11-06T15:38:11.518Z,20.23
2018-11-06T15:40:39.816Z,20.93
2018-11-06T15:43:08.145Z,21.00
2018-11-06T15:45:36.456Z,21.57
2018-11-06T15:48:04.966Z,22.03
2018-11-06T15:50:33.264Z,22.20
2018-11-06T15:53:01.590Z,22.73
2018-11-06T15:55:29.898Z,22.87
2018-11-06T15:57:58.215Z,22.53
2018-11-06T16:00:26.605Z,23.83
2018-11-06T16:02:54.949Z,23.73
2018-11-06T16:05:23.284Z,24.23
2018-11-06T16:07:51.647Z,25.27
2018-11-06T16:10:21.350Z,24.20
2018-11-06T16:12:49.677Z,24.17
2018-11-06T16:15:18.001Z,25.53
2018-11-06T16:17:46.717Z,24.27
2018-11-06T16:20:16.425Z,23.60
2018-11-06T16:22:44.866Z,23.00
2018-11-06T16:25:14.717Z,24.60
2018-11-06T16:27:43.385Z,23.40
2018-11-06T16:30:14.137Z,23.17
2018-11-06T16:32:42.664Z,22.80
2018-11-06T16:35:12.662Z,24.03
2018-11-06T16:37:41.501Z,26.57
2018-11-06T16:40:10.422Z,29.23
2018-11-06T16:42:38.981Z,29.10
2018-11-06T16:45:09.417Z,30.33
2018-11-06T16:47:37.749Z,29.13
2018-11-06T16:50:07.513Z,31.67
2018-11-06T16:52:35.829Z,31.03
2018-11-06T16:55:04.369Z,27.60
2018-11-06T16:57:32.810Z,27.70
2018-11-06T17:00:01.300Z,26.17
2018-11-06T17:02:29.468Z,28.23
2018-11-06T17:04:57.803Z,26.60
2018-11-06T17:07:26.109Z,26.60
2018-11-06T17:09:54.436Z,25.63
2018-11-06T17:12:22.745Z,27.70
2018-11-06T17:14:51.069Z,32.00
2018-11-06T17:17:19.392Z,33.13
2018-11-06T17:19:47.716Z,30.83
2018-11-06T17:22:16.053Z,31.60
2018-11-06T17:24:44.377Z,31.07
2018-11-06T17:27:12.686Z,29.37
2018-11-06T17:29:41.017Z,28.20
2018-11-06T17:32:09.320Z,27.80
2018-11-06T17:34:37.653Z,26.23
2018-11-06T17:37:06.285Z,26.37
2018-11-06T17:39:34.668Z,25.87
2018-11-06T17:42:02.942Z,24.77
2018-11-06T17:44:31.269Z,27.10
2018-11-06T17:46:59.568Z,28.67
2018-11-06T17:49:27.906Z,28.47
2018-11-06T17:51:56.218Z,28.37
2018-11-06T17:54:24.566Z,28.70
2018-11-06T17:56:52.848Z,28.13
2018-11-06T17:59:21.192Z,28.80
2018-11-06T18:01:49.514Z,28.43
2018-11-06T18:04:17.996Z,29.97
2018-11-06T18:06:46.188Z,28.33
2018-11-06T18:09:14.601Z,26.07
2018-11-06T18:11:42.899Z,26.83
2018-11-06T18:14:11.221Z,28.93
2018-11-06T18:16:39.609Z,28.63
2018-11-06T18:19:08.270Z,27.83
2018-11-06T18:21:36.740Z,28.40
2018-11-06T18:24:05.396Z,29.00
2018-11-06T18:26:33.758Z,28.33
2018-11-06T18:29:02.065Z,28.40
2018-11-06T18:31:30.420Z,29.93
2018-11-06T18:33:58.773Z,31.07
2018-11-06T18:36:27.121Z,29.60
2018-11-06T18:38:55.432Z,29.70
2018-11-06T18:41:23.770Z,27.70
2018-11-06T18:43:52.068Z,28.67
2018-11-06T18:46:20.409Z,28.20
2018-11-06T18:48:48.737Z,29.17
2018-11-06T18:51:17.110Z,27.73
2018-11-06T18:53:45.422Z,29.83
2018-11-06T18:56:13.771Z,31.50
2018-11-06T18:58:42.094Z,29.43
2018-11-06T19:01:10.473Z,29.67
2018-11-06T19:03:38.781Z,30.03
2018-11-06T19:06:07.118Z,29.57
2018-11-06T19:08:35.644Z,30.33
2018-11-06T19:11:03.973Z,28.90
2018-11-06T19:13:32.271Z,29.27
2018-11-06T19:16:00.620Z,29.70
2018-11-06T19:18:28.926Z,28.33
2018-11-06T19:20:57.280Z,28.57
2018-11-06T19:23:25.580Z,29.67
2018-11-06T19:25:53.910Z,30.93
2018-11-06T19:28:22.213Z,29.97
2018-11-06T19:30:50.594Z,30.60
2018-11-06T19:33:18.888Z,28.87
2018-11-06T19:35:47.285Z,28.37
2018-11-06T19:38:15.601Z,29.27
2018-11-06T19:40:43.958Z,30.60
2018-11-06T19:43:12.268Z,28.07
2018-11-06T19:45:40.616Z,27.40
2018-11-06T19:48:08.961Z,27.23
2018-11-06T19:50:37.310Z,26.47
2018-11-06T19:53:05.629Z,25.57
2018-11-06T19:55:33.972Z,27.40
2018-11-06T19:58:02.466Z,26.10
2018-11-06T20:00:30.852Z,24.63
2018-11-06T20:02:59.189Z,26.30
2018-11-06T20:05:27.617Z,29.33
2018-11-06T20:07:55.837Z,28.13
2018-11-06T20:10:25.141Z,26.70
2018-11-06T20:12:54.405Z,25.70
2018-11-06T20:15:22.755Z,27.73
2018-11-06T20:17:51.098Z,27.93
2018-11-06T20:20:23.905Z,28.27
2018-11-06T20:22:52.277Z,29.90
2018-11-06T20:25:20.689Z,28.50
2018-11-06T20:27:49.076Z,28.13
2018-11-06T20:30:19.779Z,29.83
2018-11-06T20:32:48.140Z,30.47
2018-11-06T20:35:16.772Z,29.53
2018-11-06T20:37:45.308Z,29.20
2018-11-06T20:40:15.448Z,28.90
2018-11-06T20:42:44.471Z,27.00
2018-11-06T20:45:14.790Z,26.73
2018-11-06T20:47:43.515Z,25.13
2018-11-06T20:50:13.684Z,25.57
2018-11-06T20:52:42.573Z,25.53
2018-11-06T20:55:11.882Z,27.33
2018-11-06T20:57:40.267Z,29.93
2018-11-06T21:00:21.582Z,26.73
2018-11-06T21:02:50.780Z,26.00
2018-11-06T21:05:19.115Z,27.57
2018-11-06T21:07:47.957Z,26.90
2018-11-06T21:10:17.718Z,27.13
2018-11-06T21:12:46.358Z,26.47
2018-11-06T21:15:14.718Z,25.40
2018-11-06T21:17:43.365Z,28.10
2018-11-06T21:20:12.675Z,26.90
2018-11-06T21:22:41.044Z,23.93
2018-11-06T21:25:09.976Z,23.53
2018-11-06T21:27:38.972Z,25.23
2018-11-06T21:30:13.132Z,24.87
2018-11-06T21:32:42.641Z,29.30
2018-11-06T21:35:10.988Z,33.07
2018-11-06T21:37:39.687Z,40.10
2018-11-06T21:40:10.033Z,31.43
2018-11-06T21:42:38.558Z,43.23
2018-11-06T21:45:07.935Z,36.83
2018-11-06T21:47:36.272Z,34.47
2018-11-06T21:50:05.833Z,34.27
2018-11-06T21:52:34.160Z,32.03
2018-11-06T21:55:02.652Z,31.57
2018-11-06T21:57:30.989Z,31.17
2018-11-06T21:59:59.288Z,31.97
2018-11-06T22:02:27.718Z,30.07
2018-11-06T22:04:56.017Z,30.80
2018-11-06T22:07:24.461Z,31.20
2018-11-06T22:09:52.777Z,28.43
2018-11-06T22:12:21.160Z,34.23
2018-11-06T22:14:49.430Z,31.60
2018-11-06T22:17:17.753Z,29.00
2018-11-06T22:19:46.058Z,26.80
2018-11-06T22:22:14.398Z,26.23
2018-11-06T22:24:42.737Z,25.73
2018-11-06T22:27:11.045Z,24.27
2018-11-06T22:29:39.397Z,23.17
2018-11-06T22:32:07.740Z,22.07
2018-11-06T22:34:36.032Z,21.80
2018-11-06T22:37:04.404Z,21.73
2018-11-06T22:39:32.677Z,20.83
2018-11-06T22:42:00.983Z,22.60
2018-11-06T22:44:29.299Z,23.53
2018-11-06T22:46:57.606Z,24.13
2018-11-06T22:49:25.934Z,24.87
2018-11-06T22:51:54.235Z,25.93
2018-11-06T22:54:22.552Z,23.40
2018-11-06T22:56:50.850Z,22.77
2018-11-06T22:59:19.161Z,23.60
2018-11-06T23:01:47.469Z,27.93
2018-11-06T23:04:15.841Z,23.87
2018-11-06T23:06:44.222Z,22.53
2018-11-06T23:09:12.489Z,22.93
2018-11-06T23:11:40.793Z,21.67
2018-11-06T23:14:09.132Z,21.70
2018-11-06T23:16:37.445Z,22.80
2018-11-06T23:19:05.840Z,21.60
2018-11-06T23:21:34.210Z,22.50
2018-11-06T23:24:02.532Z,22.73
2018-11-06T23:26:30.883Z,22.47
2018-11-06T23:28:59.189Z,23.70
2018-11-06T23:31:27.550Z,25.23
2018-11-06T23:33:55.857Z,25.87
2018-11-06T23:36:24.776Z,23.30
2018-11-06T23:38:53.100Z,21.77
2018-11-06T23:41:21.404Z,20.57
2018-11-06T23:43:49.725Z,19.20
2018-11-06T23:46:18.046Z,19.83
2018-11-06T23:48:46.384Z,18.10
2018-11-06T23:51:14.680Z,18.73
2018-11-06T23:53:42.997Z,18.77
2018-11-06T23:56:11.327Z,18.07
2018-11-06T23:58:39.677Z,19.60
